Redfield, NY (13437)

9:56 AM EDT on October 02, 2014 (GMT -0400)
Lorton Lake Back End | Change Station
CLOSE
Current Station
Personal Weather Station
Location: Altmar, NY
Elevation: 870 ft
Nearby Weather Stations

Elev 870 ft 43.50 °N, 75.89 °W | Updated 7 minutes ago

Partly Cloudy
Partly Cloudy
58.9 °F
Feels Like 58.9 °F
N
0.0
Wind Variable Wind from South

Today
High -- | Low -- °F
--% Chance of Precip.
Yesterday
High -- | Low -- °F
Precip. -- in
7:01 AM 6:42 PM
First Quarter, 59% visible
Pressure 30.15 in
Visibility 10.0 miles
Clouds Few 100 ft
Dew Point 58 °F
Humidity 98%
Rainfall 0.00 in
Snow Depth Not available.
UV 2 out of 12
Pollen 2.90 out of 12
Air Quality Not available.
Flu Activity Not available.
SPECI KART 021321Z AUTO 00000KT 10SM FEW001 17/12 A3015 RMK AO2 T01670117

More Conditions Fewer Conditions

Pressure 30.15 in
Visibility 10.0 miles
Clouds Few 100 ft
Dew Point 58 °F
Humidity 98%
Rainfall 0.00 in
Snow Depth Not available.
UV 2 out of 12
Pollen 2.90 out of 12
Air Quality Not available.
Flu Activity Not available.
SPECI KART 021321Z AUTO 00000KT 10SM FEW001 17/12 A3015 RMK AO2 T01670117

More Conditions Fewer Conditions

10-Day Weather Forecast

Almanac

Astronomy

Oct. 02, 2014 Rise Set
Actual Time 7:01 AM EDT 6:42 PM EDT
Civil Twilight 6:33 AM EDT 7:11 PM EDT
Nautical Twilight 6:00 AM EDT 7:44 PM EDT
Astronomical Twilight 5:26 AM EDT 8:17 PM EDT
Moon 2:56 PM EDT 12:06 AM EDT
Length of Visible Light 12h 37m
Length of Day
11h 40m
Tomorrow will be 2m 57s shorter.
First Quarter, 59% of the Moon is Illuminated
Today
First Quarter
Oct 8
Full
Oct 15
Last Quarter
Oct 23
New
Oct 30
First Quarter

Today's Extremes

State Highs State Lows

Community

WunderPhotos

Upload Photos

1,758,245 photos uploaded!

WunderBlogs® & News

Nearby

Air Quality

  Air Quality AQ Index Pollutant
Thursday Good
PM2.5

Snow Depth

Station Depth Elevation
No new snow has been reported.

Earthquake Activity

City Distance Mag. Time & Date
No recent earthquake activity has been reported nearby.
Minimum magnitude displayed is 2.5.

Coastal Water Temperatures

Place Temperature
Alexandria Bay, NY 64.9 °F
Ogdensburg, NY 64.0 °F

Nearby Weather Stations